sensor_id;sensor_type;location;lat;lon;timestamp;temperature;humidity
45066;DHT22;30830;53.704;10.004;2022-12-10T00:01:41;-0.90;99.90
45066;DHT22;30830;53.704;10.004;2022-12-10T00:04:06;-0.90;99.90
45066;DHT22;30830;53.704;10.004;2022-12-10T00:06:33;-0.90;99.90
45066;DHT22;30830;53.704;10.004;2022-12-10T00:08:59;-0.90;99.90
45066;DHT22;30830;53.704;10.004;2022-12-10T00:11:24;-0.90;99.90
45066;DHT22;30830;53.704;10.004;2022-12-10T00:13:51;-0.90;99.90
45066;DHT22;30830;53.704;10.004;2022-12-10T00:16:18;-0.90;99.90
45066;DHT22;30830;53.704;10.004;2022-12-10T00:18:44;-0.90;99.90
45066;DHT22;30830;53.704;10.004;2022-12-10T00:21:13;-0.90;99.90
45066;DHT22;30830;53.704;10.004;2022-12-10T00:23:40;-0.90;99.90
45066;DHT22;30830;53.704;10.004;2022-12-10T00:26:06;-0.90;99.90
45066;DHT22;30830;53.704;10.004;2022-12-10T00:28:32;-0.90;99.90
45066;DHT22;30830;53.704;10.004;2022-12-10T00:31:03;-0.90;99.90
45066;DHT22;30830;53.704;10.004;2022-12-10T00:33:29;-0.90;99.90
45066;DHT22;30830;53.704;10.004;2022-12-10T00:35:55;-0.90;99.90
45066;DHT22;30830;53.704;10.004;2022-12-10T00:38:20;-0.90;99.90
45066;DHT22;30830;53.704;10.004;2022-12-10T00:40:46;-0.90;99.90
45066;DHT22;30830;53.704;10.004;2022-12-10T00:43:11;-0.90;99.90
45066;DHT22;30830;53.704;10.004;2022-12-10T00:45:37;-0.90;99.90
45066;DHT22;30830;53.704;10.004;2022-12-10T00:48:02;-0.90;99.90
45066;DHT22;30830;53.704;10.004;2022-12-10T00:50:28;-0.90;99.90
45066;DHT22;30830;53.704;10.004;2022-12-10T00:52:53;-0.90;99.90
45066;DHT22;30830;53.704;10.004;2022-12-10T00:55:19;-0.90;99.90
45066;DHT22;30830;53.704;10.004;2022-12-10T00:57:44;-0.90;99.90
45066;DHT22;30830;53.704;10.004;2022-12-10T01:00:10;-0.90;99.90
45066;DHT22;30830;53.704;10.004;2022-12-10T01:02:36;-0.90;99.90
45066;DHT22;30830;53.704;10.004;2022-12-10T01:05:01;-0.90;99.90
45066;DHT22;30830;53.704;10.004;2022-12-10T01:07:26;-0.90;99.90
45066;DHT22;30830;53.704;10.004;2022-12-10T01:09:52;-0.90;99.90
45066;DHT22;30830;53.704;10.004;2022-12-10T01:12:17;-0.90;99.90
45066;DHT22;30830;53.704;10.004;2022-12-10T01:14:43;-0.90;99.90
45066;DHT22;30830;53.704;10.004;2022-12-10T01:17:08;-0.90;99.90
45066;DHT22;30830;53.704;10.004;2022-12-10T01:19:34;-0.90;99.90
45066;DHT22;30830;53.704;10.004;2022-12-10T01:21:59;-0.90;99.90
45066;DHT22;30830;53.704;10.004;2022-12-10T01:24:26;-0.90;99.90
45066;DHT22;30830;53.704;10.004;2022-12-10T01:26:52;-0.90;99.90
45066;DHT22;30830;53.704;10.004;2022-12-10T01:29:18;-0.90;99.90
45066;DHT22;30830;53.704;10.004;2022-12-10T01:31:44;-0.90;99.90
45066;DHT22;30830;53.704;10.004;2022-12-10T01:34:11;-0.90;99.90
45066;DHT22;30830;53.704;10.004;2022-12-10T01:36:37;-0.90;99.90
45066;DHT22;30830;53.704;10.004;2022-12-10T01:39:04;-0.90;99.90
45066;DHT22;30830;53.704;10.004;2022-12-10T01:41:33;-0.90;99.90
45066;DHT22;30830;53.704;10.004;2022-12-10T01:46:25;-0.90;99.90
45066;DHT22;30830;53.704;10.004;2022-12-10T01:48:51;-0.90;99.90
45066;DHT22;30830;53.704;10.004;2022-12-10T01:51:17;-0.90;99.90
45066;DHT22;30830;53.704;10.004;2022-12-10T01:53:43;-0.90;99.90
45066;DHT22;30830;53.704;10.004;2022-12-10T01:56:10;-0.90;99.90
45066;DHT22;30830;53.704;10.004;2022-12-10T01:58:37;-0.90;99.90
45066;DHT22;30830;53.704;10.004;2022-12-10T02:01:10;-0.90;99.90
45066;DHT22;30830;53.704;10.004;2022-12-10T02:03:47;-0.90;99.90
45066;DHT22;30830;53.704;10.004;2022-12-10T02:08:53;-0.90;99.90
45066;DHT22;30830;53.704;10.004;2022-12-10T02:11:27;-0.90;99.90
45066;DHT22;30830;53.704;10.004;2022-12-10T02:14:06;-0.90;99.90
45066;DHT22;30830;53.704;10.004;2022-12-10T02:16:34;-0.90;99.90
45066;DHT22;30830;53.704;10.004;2022-12-10T02:21:40;-1.00;99.90
45066;DHT22;30830;53.704;10.004;2022-12-10T02:24:07;-1.00;99.90
45066;DHT22;30830;53.704;10.004;2022-12-10T02:31:32;-1.00;99.90
45066;DHT22;30830;53.704;10.004;2022-12-10T02:33:59;-0.90;99.90
45066;DHT22;30830;53.704;10.004;2022-12-10T02:36:28;-0.90;99.90
45066;DHT22;30830;53.704;10.004;2022-12-10T02:38:54;-0.90;99.90
45066;DHT22;30830;53.704;10.004;2022-12-10T02:41:25;-0.90;99.90
45066;DHT22;30830;53.704;10.004;2022-12-10T02:43:52;-0.90;99.90
45066;DHT22;30830;53.704;10.004;2022-12-10T02:46:19;-0.90;99.90
45066;DHT22;30830;53.704;10.004;2022-12-10T02:48:45;-0.90;99.90
45066;DHT22;30830;53.704;10.004;2022-12-10T02:51:11;-1.00;99.90
45066;DHT22;30830;53.704;10.004;2022-12-10T02:53:41;-1.00;99.90
45066;DHT22;30830;53.704;10.004;2022-12-10T03:01:29;-1.00;99.90
45066;DHT22;30830;53.704;10.004;2022-12-10T03:04:12;-1.00;99.90
45066;DHT22;30830;53.704;10.004;2022-12-10T03:06:50;-1.00;99.90
45066;DHT22;30830;53.704;10.004;2022-12-10T03:09:25;-1.10;99.90
45066;DHT22;30830;53.704;10.004;2022-12-10T03:11:56;-1.00;99.90
45066;DHT22;30830;53.704;10.004;2022-12-10T03:14:27;-1.10;99.90
45066;DHT22;30830;53.704;10.004;2022-12-10T03:16:55;-1.00;99.90
45066;DHT22;30830;53.704;10.004;2022-12-10T03:19:21;-1.00;99.90
45066;DHT22;30830;53.704;10.004;2022-12-10T03:21:49;-1.00;99.90
45066;DHT22;30830;53.704;10.004;2022-12-10T03:24:16;-1.00;99.90
45066;DHT22;30830;53.704;10.004;2022-12-10T03:26:42;-1.00;99.90
45066;DHT22;30830;53.704;10.004;2022-12-10T03:29:09;-1.00;99.90
45066;DHT22;30830;53.704;10.004;2022-12-10T03:31:36;-1.00;99.90
45066;DHT22;30830;53.704;10.004;2022-12-10T03:34:03;-1.00;99.90
45066;DHT22;30830;53.704;10.004;2022-12-10T03:36:29;-1.00;99.90
45066;DHT22;30830;53.704;10.004;2022-12-10T03:38:56;-1.00;99.90
45066;DHT22;30830;53.704;10.004;2022-12-10T03:41:22;-1.00;99.90
45066;DHT22;30830;53.704;10.004;2022-12-10T03:43:51;-1.00;99.90
45066;DHT22;30830;53.704;10.004;2022-12-10T03:46:17;-1.00;99.90
45066;DHT22;30830;53.704;10.004;2022-12-10T03:48:43;-1.00;99.90
45066;DHT22;30830;53.704;10.004;2022-12-10T03:51:09;-1.00;99.90
45066;DHT22;30830;53.704;10.004;2022-12-10T03:53:34;-1.00;99.90
45066;DHT22;30830;53.704;10.004;2022-12-10T03:55:59;-1.00;99.90
45066;DHT22;30830;53.704;10.004;2022-12-10T03:58:25;-1.00;99.90
45066;DHT22;30830;53.704;10.004;2022-12-10T04:00:51;-1.00;99.90
45066;DHT22;30830;53.704;10.004;2022-12-10T04:03:16;-1.00;99.90
45066;DHT22;30830;53.704;10.004;2022-12-10T04:05:41;-1.10;99.90
45066;DHT22;30830;53.704;10.004;2022-12-10T04:08:07;-1.00;99.90
45066;DHT22;30830;53.704;10.004;2022-12-10T04:10:36;-1.00;99.90
45066;DHT22;30830;53.704;10.004;2022-12-10T04:13:02;-1.00;99.90
45066;DHT22;30830;53.704;10.004;2022-12-10T04:15:46;-1.00;99.90
45066;DHT22;30830;53.704;10.004;2022-12-10T04:18:30;-1.00;99.90
45066;DHT22;30830;53.704;10.004;2022-12-10T04:20:55;-1.00;99.90
45066;DHT22;30830;53.704;10.004;2022-12-10T04:23:39;-1.00;99.90
45066;DHT22;30830;53.704;10.004;2022-12-10T04:26:23;-1.00;99.90
45066;DHT22;30830;53.704;10.004;2022-12-10T04:29:09;-1.00;99.90
45066;DHT22;30830;53.704;10.004;2022-12-10T04:31:34;-1.00;99.90
45066;DHT22;30830;53.704;10.004;2022-12-10T04:34:00;-1.00;99.90
45066;DHT22;30830;53.704;10.004;2022-12-10T04:36:26;-1.00;99.90
45066;DHT22;30830;53.704;10.004;2022-12-10T04:38:51;-1.00;99.90
45066;DHT22;30830;53.704;10.004;2022-12-10T04:41:17;-1.00;99.90
45066;DHT22;30830;53.704;10.004;2022-12-10T04:43:42;-1.00;99.90
45066;DHT22;30830;53.704;10.004;2022-12-10T04:46:11;-1.00;99.90
45066;DHT22;30830;53.704;10.004;2022-12-10T04:48:36;-1.00;99.90
45066;DHT22;30830;53.704;10.004;2022-12-10T04:51:02;-1.00;99.90
45066;DHT22;30830;53.704;10.004;2022-12-10T04:53:28;-1.00;99.90
45066;DHT22;30830;53.704;10.004;2022-12-10T04:55:54;-1.00;99.90
45066;DHT22;30830;53.704;10.004;2022-12-10T04:58:19;-1.00;99.90
45066;DHT22;30830;53.704;10.004;2022-12-10T05:00:45;-1.00;99.90
45066;DHT22;30830;53.704;10.004;2022-12-10T05:03:10;-1.00;99.90
45066;DHT22;30830;53.704;10.004;2022-12-10T05:05:36;-1.00;99.90
45066;DHT22;30830;53.704;10.004;2022-12-10T05:08:02;-1.00;99.90
45066;DHT22;30830;53.704;10.004;2022-12-10T05:10:27;-1.00;99.90
45066;DHT22;30830;53.704;10.004;2022-12-10T05:12:53;-1.00;99.90
45066;DHT22;30830;53.704;10.004;2022-12-10T05:15:18;-1.00;99.90
45066;DHT22;30830;53.704;10.004;2022-12-10T05:17:44;-0.90;99.90
45066;DHT22;30830;53.704;10.004;2022-12-10T05:20:09;-1.00;99.90
45066;DHT22;30830;53.704;10.004;2022-12-10T05:22:35;-1.00;99.90
45066;DHT22;30830;53.704;10.004;2022-12-10T05:25:19;-1.00;99.90
45066;DHT22;30830;53.704;10.004;2022-12-10T05:27:44;-1.00;99.90
45066;DHT22;30830;53.704;10.004;2022-12-10T05:30:10;-1.00;99.90
45066;DHT22;30830;53.704;10.004;2022-12-10T05:32:36;-1.00;99.90
45066;DHT22;30830;53.704;10.004;2022-12-10T05:35:01;-1.00;99.90
45066;DHT22;30830;53.704;10.004;2022-12-10T05:37:27;-1.00;99.90
45066;DHT22;30830;53.704;10.004;2022-12-10T05:39:53;-1.00;99.90
45066;DHT22;30830;53.704;10.004;2022-12-10T05:42:19;-1.00;99.90
45066;DHT22;30830;53.704;10.004;2022-12-10T05:44:45;-1.00;99.90
45066;DHT22;30830;53.704;10.004;2022-12-10T05:47:10;-1.00;99.90
45066;DHT22;30830;53.704;10.004;2022-12-10T05:49:36;-1.00;99.90
45066;DHT22;30830;53.704;10.004;2022-12-10T05:52:02;-1.00;99.90
45066;DHT22;30830;53.704;10.004;2022-12-10T05:54:27;-1.00;99.90
45066;DHT22;30830;53.704;10.004;2022-12-10T05:56:53;-1.00;99.90
45066;DHT22;30830;53.704;10.004;2022-12-10T05:59:19;-1.00;99.90
45066;DHT22;30830;53.704;10.004;2022-12-10T06:01:44;-1.10;99.90
45066;DHT22;30830;53.704;10.004;2022-12-10T06:04:10;-1.10;99.90
45066;DHT22;30830;53.704;10.004;2022-12-10T06:06:37;-1.10;99.90
45066;DHT22;30830;53.704;10.004;2022-12-10T06:09:03;-1.10;99.90
45066;DHT22;30830;53.704;10.004;2022-12-10T06:11:28;-1.10;99.90
45066;DHT22;30830;53.704;10.004;2022-12-10T06:13:55;-1.10;99.90
45066;DHT22;30830;53.704;10.004;2022-12-10T06:16:21;-1.10;99.90
45066;DHT22;30830;53.704;10.004;2022-12-10T06:18:47;-1.10;99.90
45066;DHT22;30830;53.704;10.004;2022-12-10T06:21:14;-1.10;99.90
45066;DHT22;30830;53.704;10.004;2022-12-10T06:23:40;-1.10;99.90
45066;DHT22;30830;53.704;10.004;2022-12-10T06:26:13;-1.10;99.90
45066;DHT22;30830;53.704;10.004;2022-12-10T06:28:39;-1.10;99.90
45066;DHT22;30830;53.704;10.004;2022-12-10T06:31:05;-1.10;99.90
45066;DHT22;30830;53.704;10.004;2022-12-10T06:33:30;-1.10;99.90
45066;DHT22;30830;53.704;10.004;2022-12-10T06:35:56;-1.20;99.90
45066;DHT22;30830;53.704;10.004;2022-12-10T06:38:21;-1.20;99.90
45066;DHT22;30830;53.704;10.004;2022-12-10T06:40:47;-1.10;99.90
45066;DHT22;30830;53.704;10.004;2022-12-10T06:43:12;-1.10;99.90
45066;DHT22;30830;53.704;10.004;2022-12-10T06:45:39;-1.10;99.90
45066;DHT22;30830;53.704;10.004;2022-12-10T06:48:04;-1.10;99.90
45066;DHT22;30830;53.704;10.004;2022-12-10T06:50:30;-1.10;99.90
45066;DHT22;30830;53.704;10.004;2022-12-10T06:52:55;-1.10;99.90
45066;DHT22;30830;53.704;10.004;2022-12-10T06:55:21;-1.10;99.90
45066;DHT22;30830;53.704;10.004;2022-12-10T06:57:46;-1.10;99.90
45066;DHT22;30830;53.704;10.004;2022-12-10T07:00:12;-1.10;99.90
45066;DHT22;30830;53.704;10.004;2022-12-10T07:02:38;-1.10;99.90
45066;DHT22;30830;53.704;10.004;2022-12-10T07:05:03;-1.10;99.90
45066;DHT22;30830;53.704;10.004;2022-12-10T07:07:29;-1.10;99.90
45066;DHT22;30830;53.704;10.004;2022-12-10T07:09:54;-1.10;99.90
45066;DHT22;30830;53.704;10.004;2022-12-10T07:12:20;-1.10;99.90
45066;DHT22;30830;53.704;10.004;2022-12-10T07:14:45;-1.10;99.90
45066;DHT22;30830;53.704;10.004;2022-12-10T07:17:11;-1.10;99.90
45066;DHT22;30830;53.704;10.004;2022-12-10T07:19:36;-1.20;99.90
45066;DHT22;30830;53.704;10.004;2022-12-10T07:22:02;-1.10;99.90
45066;DHT22;30830;53.704;10.004;2022-12-10T07:24:28;-1.10;99.90
45066;DHT22;30830;53.704;10.004;2022-12-10T07:26:53;-1.10;99.90
45066;DHT22;30830;53.704;10.004;2022-12-10T07:29:20;-1.10;99.90
45066;DHT22;30830;53.704;10.004;2022-12-10T07:31:46;-1.10;99.90
45066;DHT22;30830;53.704;10.004;2022-12-10T07:34:13;-1.10;99.90
45066;DHT22;30830;53.704;10.004;2022-12-10T07:36:38;-1.10;99.90
45066;DHT22;30830;53.704;10.004;2022-12-10T07:39:04;-1.10;99.90
45066;DHT22;30830;53.704;10.004;2022-12-10T07:41:30;-1.20;99.90
45066;DHT22;30830;53.704;10.004;2022-12-10T07:43:56;-1.20;99.90
45066;DHT22;30830;53.704;10.004;2022-12-10T07:46:25;-1.20;99.90
45066;DHT22;30830;53.704;10.004;2022-12-10T07:48:51;-1.20;99.90
45066;DHT22;30830;53.704;10.004;2022-12-10T07:51:17;-1.20;99.90
45066;DHT22;30830;53.704;10.004;2022-12-10T07:53:43;-1.20;99.90
45066;DHT22;30830;53.704;10.004;2022-12-10T07:56:09;-1.20;99.90
45066;DHT22;30830;53.704;10.004;2022-12-10T07:58:35;-1.20;99.90
45066;DHT22;30830;53.704;10.004;2022-12-10T08:01:10;-1.20;99.90
45066;DHT22;30830;53.704;10.004;2022-12-10T08:03:36;-1.20;99.90
45066;DHT22;30830;53.704;10.004;2022-12-10T08:06:05;-1.20;99.90
45066;DHT22;30830;53.704;10.004;2022-12-10T08:08:35;-1.20;99.90
45066;DHT22;30830;53.704;10.004;2022-12-10T08:11:01;-1.20;99.90
45066;DHT22;30830;53.704;10.004;2022-12-10T08:13:27;-1.20;99.90
45066;DHT22;30830;53.704;10.004;2022-12-10T08:15:53;-1.20;99.90
45066;DHT22;30830;53.704;10.004;2022-12-10T08:18:18;-1.20;99.90
45066;DHT22;30830;53.704;10.004;2022-12-10T08:20:44;-1.20;99.90
45066;DHT22;30830;53.704;10.004;2022-12-10T08:23:09;-1.20;99.90
45066;DHT22;30830;53.704;10.004;2022-12-10T08:25:35;-1.20;99.90
45066;DHT22;30830;53.704;10.004;2022-12-10T08:28:01;-1.20;99.90
45066;DHT22;30830;53.704;10.004;2022-12-10T08:30:28;-1.30;99.90
45066;DHT22;30830;53.704;10.004;2022-12-10T08:32:53;-1.20;99.90
45066;DHT22;30830;53.704;10.004;2022-12-10T08:35:19;-1.20;99.90
45066;DHT22;30830;53.704;10.004;2022-12-10T08:37:45;-1.20;99.90
45066;DHT22;30830;53.704;10.004;2022-12-10T08:42:40;-1.30;99.90
45066;DHT22;30830;53.704;10.004;2022-12-10T08:45:05;-1.30;99.90
45066;DHT22;30830;53.704;10.004;2022-12-10T08:47:31;-1.30;99.90
45066;DHT22;30830;53.704;10.004;2022-12-10T08:49:56;-1.30;99.90
45066;DHT22;30830;53.704;10.004;2022-12-10T08:52:21;-1.30;99.90
45066;DHT22;30830;53.704;10.004;2022-12-10T08:54:47;-1.30;99.90
45066;DHT22;30830;53.704;10.004;2022-12-10T08:57:12;-1.30;99.90
45066;DHT22;30830;53.704;10.004;2022-12-10T08:59:38;-1.30;99.90
45066;DHT22;30830;53.704;10.004;2022-12-10T09:02:03;-1.20;99.90
45066;DHT22;30830;53.704;10.004;2022-12-10T09:04:29;-1.20;99.90
45066;DHT22;30830;53.704;10.004;2022-12-10T09:06:54;-1.20;99.90
45066;DHT22;30830;53.704;10.004;2022-12-10T09:09:20;-1.20;99.90
45066;DHT22;30830;53.704;10.004;2022-12-10T09:11:45;-1.20;99.90
45066;DHT22;30830;53.704;10.004;2022-12-10T09:14:11;-1.20;99.90
45066;DHT22;30830;53.704;10.004;2022-12-10T09:16:36;-1.20;99.90
45066;DHT22;30830;53.704;10.004;2022-12-10T09:19:04;-1.10;99.90
45066;DHT22;30830;53.704;10.004;2022-12-10T09:21:30;-1.20;99.90
45066;DHT22;30830;53.704;10.004;2022-12-10T09:23:56;-1.10;99.90
45066;DHT22;30830;53.704;10.004;2022-12-10T09:26:21;-1.10;99.90
45066;DHT22;30830;53.704;10.004;2022-12-10T09:28:48;-1.10;99.90
45066;DHT22;30830;53.704;10.004;2022-12-10T09:31:14;-1.10;99.90
45066;DHT22;30830;53.704;10.004;2022-12-10T09:33:40;-1.10;99.90
45066;DHT22;30830;53.704;10.004;2022-12-10T09:36:07;-1.10;99.90
45066;DHT22;30830;53.704;10.004;2022-12-10T09:38:36;-1.10;99.90
45066;DHT22;30830;53.704;10.004;2022-12-10T09:41:03;-1.10;99.90
45066;DHT22;30830;53.704;10.004;2022-12-10T09:46:26;-1.10;99.90
45066;DHT22;30830;53.704;10.004;2022-12-10T09:51:41;-1.10;99.90
45066;DHT22;30830;53.704;10.004;2022-12-10T09:54:26;-1.10;99.90
45066;DHT22;30830;53.704;10.004;2022-12-10T09:56:53;-1.10;99.90
45066;DHT22;30830;53.704;10.004;2022-12-10T09:59:20;-1.20;99.90
45066;DHT22;30830;53.704;10.004;2022-12-10T10:01:47;-1.10;99.90
45066;DHT22;30830;53.704;10.004;2022-12-10T10:04:16;-1.10;99.90
45066;DHT22;30830;53.704;10.004;2022-12-10T10:06:41;-1.10;99.90
45066;DHT22;30830;53.704;10.004;2022-12-10T10:09:07;-1.10;99.90
45066;DHT22;30830;53.704;10.004;2022-12-10T10:11:36;-1.00;99.90
45066;DHT22;30830;53.704;10.004;2022-12-10T10:14:24;-1.00;99.90
45066;DHT22;30830;53.704;10.004;2022-12-10T10:16:56;-0.90;99.90
45066;DHT22;30830;53.704;10.004;2022-12-10T10:19:30;-0.80;99.90
45066;DHT22;30830;53.704;10.004;2022-12-10T10:21:56;-0.80;99.90
45066;DHT22;30830;53.704;10.004;2022-12-10T10:24:22;-0.80;99.90
45066;DHT22;30830;53.704;10.004;2022-12-10T10:26:50;-0.80;99.90
45066;DHT22;30830;53.704;10.004;2022-12-10T10:29:17;-0.70;99.90
45066;DHT22;30830;53.704;10.004;2022-12-10T10:31:43;-0.70;99.90
45066;DHT22;30830;53.704;10.004;2022-12-10T10:34:17;-0.70;99.90
45066;DHT22;30830;53.704;10.004;2022-12-10T10:36:42;-0.70;99.90
45066;DHT22;30830;53.704;10.004;2022-12-10T10:39:27;-0.70;99.90
45066;DHT22;30830;53.704;10.004;2022-12-10T10:41:56;-0.80;99.90
45066;DHT22;30830;53.704;10.004;2022-12-10T10:44:22;-0.80;99.90
45066;DHT22;30830;53.704;10.004;2022-12-10T10:46:49;-0.80;99.90
45066;DHT22;30830;53.704;10.004;2022-12-10T10:51:46;-0.80;99.90
45066;DHT22;30830;53.704;10.004;2022-12-10T10:54:12;-0.80;99.90
45066;DHT22;30830;53.704;10.004;2022-12-10T10:56:55;-0.90;99.90
45066;DHT22;30830;53.704;10.004;2022-12-10T10:59:30;-0.90;99.90
45066;DHT22;30830;53.704;10.004;2022-12-10T11:01:59;-0.90;99.90
45066;DHT22;30830;53.704;10.004;2022-12-10T11:06:55;-1.00;99.90
45066;DHT22;30830;53.704;10.004;2022-12-10T11:09:24;-1.00;99.90
45066;DHT22;30830;53.704;10.004;2022-12-10T11:11:51;-1.00;99.90
45066;DHT22;30830;53.704;10.004;2022-12-10T11:16:48;-1.00;99.90
45066;DHT22;30830;53.704;10.004;2022-12-10T11:19:22;-0.90;99.90
45066;DHT22;30830;53.704;10.004;2022-12-10T11:21:47;-1.00;99.90
45066;DHT22;30830;53.704;10.004;2022-12-10T11:24:15;-1.00;99.90
45066;DHT22;30830;53.704;10.004;2022-12-10T11:32:19;-0.90;99.90
45066;DHT22;30830;53.704;10.004;2022-12-10T11:34:59;-0.80;99.90
45066;DHT22;30830;53.704;10.004;2022-12-10T11:37:31;-0.80;99.90
45066;DHT22;30830;53.704;10.004;2022-12-10T12:00:13;-0.80;99.90
45066;DHT22;30830;53.704;10.004;2022-12-10T12:10:18;-0.80;99.90
45066;DHT22;30830;53.704;10.004;2022-12-10T12:12:48;-0.80;99.90
45066;DHT22;30830;53.704;10.004;2022-12-10T12:17:50;-0.80;99.90
45066;DHT22;30830;53.704;10.004;2022-12-10T12:20:25;-0.80;99.90
45066;DHT22;30830;53.704;10.004;2022-12-10T12:22:54;-0.80;99.90
45066;DHT22;30830;53.704;10.004;2022-12-10T12:25:26;-0.80;99.90
45066;DHT22;30830;53.704;10.004;2022-12-10T12:28:02;-0.80;99.90
45066;DHT22;30830;53.704;10.004;2022-12-10T12:30:30;-0.70;99.90
45066;DHT22;30830;53.704;10.004;2022-12-10T12:32:59;-0.70;99.90
45066;DHT22;30830;53.704;10.004;2022-12-10T12:38:06;-0.70;99.90
45066;DHT22;30830;53.704;10.004;2022-12-10T12:40:40;-0.70;99.90
45066;DHT22;30830;53.704;10.004;2022-12-10T12:43:19;-0.70;99.90
45066;DHT22;30830;53.704;10.004;2022-12-10T12:45:48;-0.60;99.90
45066;DHT22;30830;53.704;10.004;2022-12-10T12:50:43;-0.60;99.90
45066;DHT22;30830;53.704;10.004;2022-12-10T12:53:11;-0.60;99.90
45066;DHT22;30830;53.704;10.004;2022-12-10T12:58:26;-0.70;99.90
45066;DHT22;30830;53.704;10.004;2022-12-10T13:00:50;-0.70;99.90
45066;DHT22;30830;53.704;10.004;2022-12-10T13:03:24;-0.80;99.90
45066;DHT22;30830;53.704;10.004;2022-12-10T13:05:52;-0.80;99.90
45066;DHT22;30830;53.704;10.004;2022-12-10T13:10:52;-0.80;99.90
45066;DHT22;30830;53.704;10.004;2022-12-10T13:13:23;-0.90;99.90
45066;DHT22;30830;53.704;10.004;2022-12-10T13:15:49;-0.80;99.90
45066;DHT22;30830;53.704;10.004;2022-12-10T13:20:50;-0.80;99.90
45066;DHT22;30830;53.704;10.004;2022-12-10T13:33:45;-0.90;99.90
45066;DHT22;30830;53.704;10.004;2022-12-10T13:36:11;-1.00;99.90
45066;DHT22;30830;53.704;10.004;2022-12-10T13:38:54;-1.00;99.90
45066;DHT22;30830;53.704;10.004;2022-12-10T13:41:20;-1.00;99.90
45066;DHT22;30830;53.704;10.004;2022-12-10T13:44:21;-1.00;99.90
45066;DHT22;30830;53.704;10.004;2022-12-10T13:46:57;-1.00;99.90
45066;DHT22;30830;53.704;10.004;2022-12-10T13:49:24;-1.10;99.90
45066;DHT22;30830;53.704;10.004;2022-12-10T13:52:03;-1.10;99.90
45066;DHT22;30830;53.704;10.004;2022-12-10T13:59:28;-1.10;99.90
45066;DHT22;30830;53.704;10.004;2022-12-10T14:05:00;-1.10;99.90
45066;DHT22;30830;53.704;10.004;2022-12-10T14:07:29;-1.10;99.90
45066;DHT22;30830;53.704;10.004;2022-12-10T14:09:56;-1.10;99.90
45066;DHT22;30830;53.704;10.004;2022-12-10T14:14:52;-1.20;99.90
45066;DHT22;30830;53.704;10.004;2022-12-10T14:17:20;-1.20;99.90
45066;DHT22;30830;53.704;10.004;2022-12-10T14:19:47;-1.20;99.90
45066;DHT22;30830;53.704;10.004;2022-12-10T14:22:16;-1.40;99.90
45066;DHT22;30830;53.704;10.004;2022-12-10T14:24:49;-1.50;99.90
45066;DHT22;30830;53.704;10.004;2022-12-10T14:27:15;-1.50;99.90
45066;DHT22;30830;53.704;10.004;2022-12-10T14:29:49;-1.60;99.90
45066;DHT22;30830;53.704;10.004;2022-12-10T14:32:16;-1.60;99.90
45066;DHT22;30830;53.704;10.004;2022-12-10T14:34:42;-1.60;99.90
45066;DHT22;30830;53.704;10.004;2022-12-10T14:37:08;-1.60;99.90
45066;DHT22;30830;53.704;10.004;2022-12-10T14:39:37;-1.50;99.90
45066;DHT22;30830;53.704;10.004;2022-12-10T14:42:04;-1.40;99.90
45066;DHT22;30830;53.704;10.004;2022-12-10T14:44:30;-1.40;99.90
45066;DHT22;30830;53.704;10.004;2022-12-10T14:47:10;-1.40;99.90
45066;DHT22;30830;53.704;10.004;2022-12-10T14:49:41;-1.40;99.90
45066;DHT22;30830;53.704;10.004;2022-12-10T14:52:10;-1.40;99.90
45066;DHT22;30830;53.704;10.004;2022-12-10T14:54:36;-1.40;99.90
45066;DHT22;30830;53.704;10.004;2022-12-10T14:57:07;-1.40;99.90
45066;DHT22;30830;53.704;10.004;2022-12-10T14:59:50;-1.40;99.90
45066;DHT22;30830;53.704;10.004;2022-12-10T15:02:21;-1.40;99.90
45066;DHT22;30830;53.704;10.004;2022-12-10T15:04:47;-1.40;99.90
45066;DHT22;30830;53.704;10.004;2022-12-10T15:07:14;-1.40;99.90
45066;DHT22;30830;53.704;10.004;2022-12-10T15:09:42;-1.40;99.90
45066;DHT22;30830;53.704;10.004;2022-12-10T15:14:53;-1.50;99.90
45066;DHT22;30830;53.704;10.004;2022-12-10T15:22:46;-1.40;99.90
45066;DHT22;30830;53.704;10.004;2022-12-10T15:25:19;-1.50;99.90
45066;DHT22;30830;53.704;10.004;2022-12-10T15:27:51;-1.50;99.90
45066;DHT22;30830;53.704;10.004;2022-12-10T15:30:21;-1.50;99.90
45066;DHT22;30830;53.704;10.004;2022-12-10T15:32:47;-1.50;99.90
45066;DHT22;30830;53.704;10.004;2022-12-10T15:35:13;-1.50;99.90
45066;DHT22;30830;53.704;10.004;2022-12-10T15:37:39;-1.60;99.90
45066;DHT22;30830;53.704;10.004;2022-12-10T15:40:27;-1.70;99.90
45066;DHT22;30830;53.704;10.004;2022-12-10T15:42:51;-1.70;99.90
45066;DHT22;30830;53.704;10.004;2022-12-10T15:47:46;-1.70;99.90
45066;DHT22;30830;53.704;10.004;2022-12-10T15:50:11;-1.70;99.90
45066;DHT22;30830;53.704;10.004;2022-12-10T15:52:37;-1.70;99.90
45066;DHT22;30830;53.704;10.004;2022-12-10T15:55:03;-1.70;99.90
45066;DHT22;30830;53.704;10.004;2022-12-10T15:59:56;-1.70;99.90
45066;DHT22;30830;53.704;10.004;2022-12-10T16:04:53;-1.80;99.90
45066;DHT22;30830;53.704;10.004;2022-12-10T16:07:19;-1.90;99.90
45066;DHT22;30830;53.704;10.004;2022-12-10T16:09:45;-1.90;99.90
45066;DHT22;30830;53.704;10.004;2022-12-10T16:12:11;-2.00;99.90
45066;DHT22;30830;53.704;10.004;2022-12-10T16:14:37;-2.10;99.90
45066;DHT22;30830;53.704;10.004;2022-12-10T16:17:02;-2.10;99.90
45066;DHT22;30830;53.704;10.004;2022-12-10T16:19:28;-2.10;99.90
45066;DHT22;30830;53.704;10.004;2022-12-10T16:21:53;-2.10;99.90
45066;DHT22;30830;53.704;10.004;2022-12-10T16:24:18;-2.10;99.90
45066;DHT22;30830;53.704;10.004;2022-12-10T16:26:44;-2.20;99.90
45066;DHT22;30830;53.704;10.004;2022-12-10T16:29:09;-2.20;99.90
45066;DHT22;30830;53.704;10.004;2022-12-10T16:31:35;-2.10;99.90
45066;DHT22;30830;53.704;10.004;2022-12-10T16:34:01;-2.20;99.90
45066;DHT22;30830;53.704;10.004;2022-12-10T16:36:26;-2.20;99.90
45066;DHT22;30830;53.704;10.004;2022-12-10T16:38:52;-2.20;99.90
45066;DHT22;30830;53.704;10.004;2022-12-10T16:41:18;-2.20;99.90
45066;DHT22;30830;53.704;10.004;2022-12-10T16:43:44;-2.20;99.90
45066;DHT22;30830;53.704;10.004;2022-12-10T16:46:10;-2.30;99.90
45066;DHT22;30830;53.704;10.004;2022-12-10T16:48:36;-2.30;99.90
45066;DHT22;30830;53.704;10.004;2022-12-10T16:51:02;-2.30;99.90
45066;DHT22;30830;53.704;10.004;2022-12-10T16:53:28;-2.30;99.90
45066;DHT22;30830;53.704;10.004;2022-12-10T16:55:55;-2.30;99.90
45066;DHT22;30830;53.704;10.004;2022-12-10T16:58:21;-2.20;99.90
45066;DHT22;30830;53.704;10.004;2022-12-10T17:00:48;-2.30;99.90
45066;DHT22;30830;53.704;10.004;2022-12-10T17:03:15;-2.30;99.90
45066;DHT22;30830;53.704;10.004;2022-12-10T17:05:53;-2.40;99.90
45066;DHT22;30830;53.704;10.004;2022-12-10T17:08:19;-2.30;99.90
45066;DHT22;30830;53.704;10.004;2022-12-10T17:10:45;-2.30;99.90
45066;DHT22;30830;53.704;10.004;2022-12-10T17:13:29;-2.20;99.90
45066;DHT22;30830;53.704;10.004;2022-12-10T17:15:55;-2.20;99.90
45066;DHT22;30830;53.704;10.004;2022-12-10T17:18:21;-2.20;99.90